Time,TemperatureF,DewpointF,PressureIn,WindDirection,WindDirectionDegrees,WindSpeedMPH,WindSpeedGustMPH,Humidity,HourlyPrecipIn,Conditions,Clouds,dailyrainin,SolarRadiationWatts/m^2,SoftwareType,DateUTC
2013-02-19 00:01:00,50.4,34.9,30.06,North,350,4.9,12.1,55,0.00,,,0.00,0.0,meteobridge,2013-02-19 06:01:00,
2013-02-19 00:06:00,50.2,34.7,30.07,North,350,4.9,10.1,55,0.00,,,0.00,0.0,meteobridge,2013-02-19 06:06:00,
2013-02-19 00:11:00,50.0,34.9,30.07,North,355,4.9,10.1,56,0.00,,,0.00,0.0,meteobridge,2013-02-19 06:11:00,
2013-02-19 00:16:00,49.8,34.7,30.07,North,355,6.0,11.0,56,0.00,,,0.00,0.0,meteobridge,2013-02-19 06:16:00,
2013-02-19 00:21:00,49.6,34.5,30.07,North,350,6.0,10.1,56,0.00,,,0.00,0.0,meteobridge,2013-02-19 06:21:00,
2013-02-19 00:26:00,49.6,34.5,30.07,NNW,348,8.9,11.0,56,0.00,,,0.00,0.0,meteobridge,2013-02-19 06:26:00,
2013-02-19 00:31:00,49.6,34.5,30.07,NNW,346,6.0,12.1,56,0.00,,,0.00,0.0,meteobridge,2013-02-19 06:31:00,
2013-02-19 00:36:00,49.6,34.2,30.07,North,355,4.9,11.0,55,0.00,,,0.00,0.0,meteobridge,2013-02-19 06:36:00,
2013-02-19 00:41:00,49.3,34.2,30.07,North,355,6.0,6.9,56,0.00,,,0.00,0.0,meteobridge,2013-02-19 06:41:00,
2013-02-19 00:46:00,48.9,34.3,30.08,NNW,348,2.9,6.9,57,0.00,,,0.00,0.0,meteobridge,2013-02-19 06:46:00,
2013-02-19 00:51:00,48.6,34.0,30.08,NNW,348,2.9,6.0,57,0.00,,,0.00,0.0,meteobridge,2013-02-19 06:51:00,
2013-02-19 00:57:00,47.8,33.8,30.09,NNW,348,0.0,2.0,58,0.00,,,0.00,0.0,meteobridge,2013-02-19 06:57:00,
2013-02-19 01:01:00,46.9,33.8,30.09,NNW,348,0.0,0.0,60,0.00,,,0.00,0.0,meteobridge,2013-02-19 07:01:00,
2013-02-19 01:07:00,46.4,33.3,30.09,NNW,348,0.0,0.9,60,0.00,,,0.00,0.0,meteobridge,2013-02-19 07:07:00,
2013-02-19 01:12:00,45.9,33.6,30.09,NNW,348,2.0,6.0,62,0.00,,,0.00,0.0,meteobridge,2013-02-19 07:12:00,
2013-02-19 01:17:00,46.0,33.8,30.10,NNW,347,0.9,4.0,62,0.00,,,0.00,0.0,meteobridge,2013-02-19 07:17:00,
2013-02-19 01:22:00,46.2,33.4,30.10,North,349,4.9,6.0,61,0.00,,,0.00,0.0,meteobridge,2013-02-19 07:22:00,
2013-02-19 01:27:00,46.4,33.6,30.09,North,350,4.0,6.9,61,0.00,,,0.00,0.0,meteobridge,2013-02-19 07:27:00,
2013-02-19 01:32:00,46.6,33.4,30.10,NNW,329,6.9,10.1,60,0.00,,,0.00,0.0,meteobridge,2013-02-19 07:32:00,
2013-02-19 01:37:00,46.8,33.6,30.10,North,355,4.9,6.0,60,0.00,,,0.00,0.0,meteobridge,2013-02-19 07:37:00,
2013-02-19 01:42:00,46.6,33.4,30.10,NNW,342,2.9,4.0,60,0.00,,,0.00,0.0,meteobridge,2013-02-19 07:42:00,
2013-02-19 01:47:00,46.0,33.3,30.10,NNW,345,2.0,2.9,61,0.00,,,0.00,0.0,meteobridge,2013-02-19 07:47:00,
2013-02-19 01:52:00,45.9,33.3,30.10,NNW,344,2.9,4.0,61,0.00,,,0.00,0.0,meteobridge,2013-02-19 07:52:00,
2013-02-19 01:57:00,45.5,33.3,30.10,NNW,346,0.0,4.0,62,0.00,,,0.00,0.0,meteobridge,2013-02-19 07:57:00,
2013-02-19 02:02:00,45.1,32.9,30.10,NNW,348,0.0,6.0,62,0.00,,,0.00,0.0,meteobridge,2013-02-19 08:02:00,
2013-02-19 02:07:00,45.0,32.7,30.10,North,355,2.9,6.0,62,0.00,,,0.00,0.0,meteobridge,2013-02-19 08:07:00,
2013-02-19 02:12:00,45.1,32.9,30.10,North,350,2.0,4.9,62,0.00,,,0.00,0.0,meteobridge,2013-02-19 08:12:00,
2013-02-19 02:17:00,45.1,32.9,30.10,North,349,2.0,4.0,62,0.00,,,0.00,0.0,meteobridge,2013-02-19 08:17:00,
2013-02-19 02:22:00,45.0,32.7,30.10,North,349,2.0,4.0,62,0.00,,,0.00,0.0,meteobridge,2013-02-19 08:22:00,
2013-02-19 02:28:00,45.0,32.7,30.10,North,349,2.9,4.0,62,0.00,,,0.00,0.0,meteobridge,2013-02-19 08:28:00,
2013-02-19 02:33:00,44.8,32.5,30.11,NNW,346,2.0,4.0,62,0.00,,,0.00,0.0,meteobridge,2013-02-19 08:33:00,
2013-02-19 02:38:00,44.4,32.2,30.11,NNW,345,2.9,4.0,62,0.00,,,0.00,0.0,meteobridge,2013-02-19 08:38:00,
2013-02-19 02:43:00,44.2,32.4,30.11,NNW,346,2.9,4.0,63,0.00,,,0.00,0.0,meteobridge,2013-02-19 08:43:00,
2013-02-19 02:48:00,43.9,32.2,30.11,NNW,346,2.0,2.9,63,0.00,,,0.00,0.0,meteobridge,2013-02-19 08:48:00,
2013-02-19 02:53:00,43.5,31.8,30.11,NNW,346,2.9,2.9,63,0.00,,,0.00,0.0,meteobridge,2013-02-19 08:53:00,
2013-02-19 02:58:00,43.2,31.8,30.11,NNW,346,2.0,4.0,64,0.00,,,0.00,0.0,meteobridge,2013-02-19 08:58:00,
2013-02-19 03:03:00,43.0,31.6,30.11,NNW,346,2.0,4.0,64,0.00,,,0.00,0.0,meteobridge,2013-02-19 09:03:00,
2013-02-19 03:08:00,41.5,30.7,30.11,NNW,346,4.0,4.0,65,0.00,,,0.00,0.0,meteobridge,2013-02-19 09:08:00,
2013-02-19 03:13:00,40.6,30.6,30.11,North,355,2.9,4.0,67,0.00,,,0.00,0.0,meteobridge,2013-02-19 09:13:00,
2013-02-19 03:18:00,40.8,31.1,30.11,NNE,28,4.9,6.0,68,0.00,,,0.00,0.0,meteobridge,2013-02-19 09:18:00,
2013-02-19 03:23:00,41.5,31.8,30.11,NE,42,6.0,6.9,68,0.00,,,0.00,0.0,meteobridge,2013-02-19 09:23:00,
2013-02-19 03:29:00,42.3,32.5,30.11,NE,41,4.9,6.9,68,0.00,,,0.00,0.0,meteobridge,2013-02-19 09:29:00,
2013-02-19 03:34:00,42.6,32.4,30.11,NE,35,6.0,8.9,67,0.00,,,0.00,0.0,meteobridge,2013-02-19 09:34:00,
2013-02-19 03:38:00,43.0,32.4,30.11,NE,38,6.9,10.1,66,0.00,,,0.00,0.0,meteobridge,2013-02-19 09:38:00,
2013-02-19 03:44:00,43.2,32.5,30.11,NE,40,8.1,10.1,66,0.00,,,0.00,0.0,meteobridge,2013-02-19 09:44:00,
2013-02-19 03:49:00,43.2,32.2,30.11,NE,40,4.0,6.9,65,0.00,,,0.00,0.0,meteobridge,2013-02-19 09:49:00,
2013-02-19 03:54:00,43.2,32.2,30.11,NNE,32,2.9,8.1,65,0.00,,,0.00,0.0,meteobridge,2013-02-19 09:54:00,
2013-02-19 03:59:00,42.8,31.8,30.11,NE,40,2.9,6.0,65,0.00,,,0.00,0.0,meteobridge,2013-02-19 09:59:00,
2013-02-19 04:04:00,42.6,32.0,30.11,ENE,69,4.9,8.9,66,0.00,,,0.00,0.0,meteobridge,2013-02-19 10:04:00,
2013-02-19 04:09:00,42.8,32.2,30.11,NE,36,8.9,8.9,66,0.00,,,0.00,0.0,meteobridge,2013-02-19 10:09:00,
2013-02-19 04:14:00,43.0,32.4,30.10,NE,46,6.0,11.0,66,0.00,,,0.00,0.0,meteobridge,2013-02-19 10:14:00,
2013-02-19 04:19:00,42.6,32.0,30.10,NE,44,4.0,6.9,66,0.00,,,0.00,0.0,meteobridge,2013-02-19 10:19:00,
2013-02-19 04:24:00,42.4,32.2,30.10,NE,37,6.9,13.0,67,0.00,,,0.00,0.0,meteobridge,2013-02-19 10:24:00,
2013-02-19 04:29:00,42.4,32.2,30.10,NE,53,6.9,14.1,67,0.00,,,0.00,0.0,meteobridge,2013-02-19 10:29:00,
2013-02-19 04:34:00,42.8,32.2,30.10,East,81,8.9,13.0,66,0.00,,,0.00,0.0,meteobridge,2013-02-19 10:34:00,
2013-02-19 04:39:00,43.0,32.4,30.10,NE,40,8.9,13.0,66,0.00,,,0.00,0.0,meteobridge,2013-02-19 10:39:00,
2013-02-19 04:44:00,43.2,32.5,30.10,NE,38,8.9,16.1,66,0.00,,,0.00,0.0,meteobridge,2013-02-19 10:44:00,
2013-02-19 04:50:00,43.0,32.0,30.11,NE,44,6.9,16.1,65,0.00,,,0.00,0.0,meteobridge,2013-02-19 10:50:00,
2013-02-19 04:54:00,43.0,32.0,30.12,NNE,24,4.9,6.9,65,0.00,,,0.00,0.0,meteobridge,2013-02-19 10:54:00,
2013-02-19 05:00:00,42.6,31.6,30.13,NE,37,2.9,8.1,65,0.00,,,0.00,0.0,meteobridge,2013-02-19 11:00:00,
2013-02-19 05:05:00,42.4,31.5,30.14,NNE,32,4.0,10.1,65,0.00,,,0.00,0.0,meteobridge,2013-02-19 11:05:00,
2013-02-19 05:10:00,42.3,31.6,30.14,NNE,25,4.0,6.0,66,0.00,,,0.00,0.0,meteobridge,2013-02-19 11:10:00,
2013-02-19 05:15:00,41.9,31.5,30.15,NNE,31,2.0,6.0,66,0.00,,,0.00,0.0,meteobridge,2013-02-19 11:15:00,
2013-02-19 05:20:00,41.4,30.9,30.14,NE,41,2.0,6.0,66,0.00,,,0.00,0.0,meteobridge,2013-02-19 11:20:00,
2013-02-19 05:25:00,41.2,31.1,30.14,NE,35,6.0,6.0,67,0.00,,,0.00,0.0,meteobridge,2013-02-19 11:25:00,
2013-02-19 05:30:00,41.4,30.9,30.15,NNE,26,2.9,6.0,66,0.00,,,0.00,0.0,meteobridge,2013-02-19 11:30:00,
2013-02-19 05:35:00,41.2,30.7,30.15,NE,34,2.9,4.9,66,0.00,,,0.00,0.0,meteobridge,2013-02-19 11:35:00,
2013-02-19 05:40:00,40.6,30.2,30.15,NNE,22,4.0,4.9,66,0.00,,,0.00,0.0,meteobridge,2013-02-19 11:40:00,
2013-02-19 05:45:00,40.5,30.4,30.16,NE,40,4.0,6.0,67,0.00,,,0.00,0.0,meteobridge,2013-02-19 11:45:00,
2013-02-19 05:50:00,40.5,30.0,30.16,NE,40,2.9,4.0,66,0.00,,,0.00,0.0,meteobridge,2013-02-19 11:50:00,
2013-02-19 05:55:00,39.9,29.5,30.16,NE,40,2.9,4.0,66,0.00,,,0.00,0.0,meteobridge,2013-02-19 11:55:00,
2013-02-19 06:00:00,39.9,29.8,30.17,NE,41,2.0,4.0,67,0.00,,,0.00,0.0,meteobridge,2013-02-19 12:00:00,
2013-02-19 06:05:00,39.7,29.7,30.17,NE,41,0.0,2.0,67,0.00,,,0.00,0.0,meteobridge,2013-02-19 12:05:00,
2013-02-19 06:10:00,39.4,29.3,30.17,NE,42,0.0,0.0,67,0.00,,,0.00,0.0,meteobridge,2013-02-19 12:10:00,
2013-02-19 06:15:00,39.6,29.8,30.18,NE,41,0.0,0.0,68,0.00,,,0.00,0.0,meteobridge,2013-02-19 12:15:00,
2013-02-19 06:20:00,39.6,29.8,30.18,NE,41,0.0,0.0,68,0.00,,,0.00,0.0,meteobridge,2013-02-19 12:20:00,
2013-02-19 06:25:00,39.7,30.4,30.18,NE,41,0.0,0.0,69,0.00,,,0.00,0.0,meteobridge,2013-02-19 12:25:00,
2013-02-19 06:31:00,39.2,29.8,30.19,NE,42,0.0,0.0,69,0.00,,,0.00,0.0,meteobridge,2013-02-19 12:31:00,
2013-02-19 06:36:00,38.8,29.5,30.19,NE,42,0.0,0.0,69,0.00,,,0.00,0.0,meteobridge,2013-02-19 12:36:00,
2013-02-19 06:40:00,38.5,29.1,30.19,NE,42,0.0,0.0,69,0.00,,,0.00,0.0,meteobridge,2013-02-19 12:40:00,
2013-02-19 06:45:00,37.6,29.1,30.19,NE,41,0.0,0.0,71,0.00,,,0.00,0.0,meteobridge,2013-02-19 12:45:00,
2013-02-19 06:51:00,37.8,28.9,30.19,East,95,0.9,2.9,70,0.00,,,0.00,0.0,meteobridge,2013-02-19 12:51:00,
2013-02-19 06:56:00,37.9,29.1,30.20,East,95,0.0,0.9,70,0.00,,,0.00,0.0,meteobridge,2013-02-19 12:56:00,
2013-02-19 07:01:00,37.8,29.1,30.20,East,95,2.9,2.9,71,0.00,,,0.00,5.0,meteobridge,2013-02-19 13:01:00,
2013-02-19 07:06:00,38.1,29.8,30.20,East,95,2.0,2.9,72,0.00,,,0.00,11.0,meteobridge,2013-02-19 13:06:00,
2013-02-19 07:11:00,38.5,30.2,30.21,East,87,2.0,4.0,72,0.00,,,0.00,16.0,meteobridge,2013-02-19 13:11:00,
2013-02-19 07:16:00,38.7,30.0,30.22,ENE,74,2.0,2.9,71,0.00,,,0.00,30.0,meteobridge,2013-02-19 13:16:00,
2013-02-19 07:21:00,39.0,30.4,30.22,ENE,74,2.9,2.9,71,0.00,,,0.00,40.0,meteobridge,2013-02-19 13:21:00,
2013-02-19 07:26:00,39.6,30.6,30.22,ENE,74,0.0,4.0,70,0.00,,,0.00,53.0,meteobridge,2013-02-19 13:26:00,
2013-02-19 07:31:00,40.1,30.7,30.23,ENE,74,0.9,2.0,69,0.00,,,0.00,70.0,meteobridge,2013-02-19 13:31:00,
2013-02-19 07:36:00,40.6,30.9,30.23,ENE,74,2.0,2.9,68,0.00,,,0.00,90.0,meteobridge,2013-02-19 13:36:00,
2013-02-19 07:41:00,41.2,32.5,30.23,ENE,74,0.9,2.0,71,0.00,,,0.00,100.0,meteobridge,2013-02-19 13:41:00,
2013-02-19 07:45:00,41.5,31.1,30.24,ENE,74,2.0,2.9,66,0.00,,,0.00,90.0,meteobridge,2013-02-19 13:45:00,
2013-02-19 07:51:00,41.7,30.7,30.24,ENE,63,2.9,2.9,65,0.00,,,0.00,137.0,meteobridge,2013-02-19 13:51:00,
2013-02-19 07:56:00,42.3,30.9,30.24,NNE,30,4.0,4.9,64,0.00,,,0.00,100.0,meteobridge,2013-02-19 13:56:00,
2013-02-19 08:01:00,42.3,30.9,30.25,NE,38,2.9,4.0,64,0.00,,,0.00,104.0,meteobridge,2013-02-19 14:01:00,
2013-02-19 08:06:00,42.6,30.9,30.26,NE,38,2.0,4.0,63,0.00,,,0.00,195.0,meteobridge,2013-02-19 14:06:00,
2013-02-19 08:11:00,43.5,31.8,30.27,NE,38,0.9,2.0,63,0.00,,,0.00,171.0,meteobridge,2013-02-19 14:11:00,
2013-02-19 08:16:00,44.1,30.7,30.28,NE,39,0.0,2.9,59,0.00,,,0.00,174.0,meteobridge,2013-02-19 14:16:00,
2013-02-19 08:21:00,44.2,30.4,30.28,NE,45,0.0,2.0,58,0.00,,,0.00,156.0,meteobridge,2013-02-19 14:21:00,
2013-02-19 08:26:00,44.6,31.1,30.28,NE,51,2.9,4.9,59,0.00,,,0.00,279.0,meteobridge,2013-02-19 14:26:00,
2013-02-19 08:31:00,45.1,31.3,30.28,ENE,67,0.9,2.9,58,0.00,,,0.00,320.0,meteobridge,2013-02-19 14:31:00,
2013-02-19 08:36:00,45.7,30.9,30.29,ENE,71,2.0,4.0,56,0.00,,,0.00,264.0,meteobridge,2013-02-19 14:36:00,
2013-02-19 08:41:00,45.5,29.8,30.29,ESE,109,0.0,2.0,54,0.00,,,0.00,246.0,meteobridge,2013-02-19 14:41:00,
2013-02-19 08:46:00,45.7,30.4,30.29,ESE,114,2.0,2.9,55,0.00,,,0.00,227.0,meteobridge,2013-02-19 14:46:00,
2013-02-19 08:51:00,46.0,30.4,30.30,ESE,118,0.0,2.0,54,0.00,,,0.00,332.0,meteobridge,2013-02-19 14:51:00,
2013-02-19 08:56:00,46.9,30.7,30.30,ESE,109,0.9,2.9,53,0.00,,,0.00,411.0,meteobridge,2013-02-19 14:56:00,
2013-02-19 09:01:00,47.7,30.9,30.30,ENE,71,0.0,6.0,52,0.00,,,0.00,302.0,meteobridge,2013-02-19 15:01:00,
2013-02-19 09:06:00,47.3,29.7,30.30,East,97,2.0,4.9,50,0.00,,,0.00,253.0,meteobridge,2013-02-19 15:06:00,
2013-02-19 09:11:00,47.3,28.6,30.29,East,87,2.9,4.9,48,0.00,,,0.00,223.0,meteobridge,2013-02-19 15:11:00,
2013-02-19 09:16:00,46.9,28.8,30.30,ENE,61,2.9,6.9,49,0.00,,,0.00,223.0,meteobridge,2013-02-19 15:16:00,
2013-02-19 09:21:00,47.1,27.9,30.30,East,94,0.9,6.0,47,0.00,,,0.00,415.0,meteobridge,2013-02-19 15:21:00,
2013-02-19 09:26:00,48.0,28.2,30.29,ENE,67,4.0,10.1,46,0.00,,,0.00,441.0,meteobridge,2013-02-19 15:26:00,
2013-02-19 09:32:00,48.7,29.5,30.28,NE,49,4.0,8.9,47,0.00,,,0.00,457.0,meteobridge,2013-02-19 15:32:00,
2013-02-19 09:37:00,48.7,28.9,30.28,East,88,2.9,8.9,46,0.00,,,0.00,475.0,meteobridge,2013-02-19 15:37:00,
2013-02-19 09:42:00,48.9,29.1,30.29,East,83,4.9,10.1,46,0.00,,,0.00,489.0,meteobridge,2013-02-19 15:42:00,
2013-02-19 09:47:00,48.9,29.7,30.29,ESE,107,2.0,6.0,47,0.00,,,0.00,503.0,meteobridge,2013-02-19 15:47:00,
2013-02-19 09:52:00,49.5,30.0,30.30,NE,48,6.0,6.0,47,0.00,,,0.00,517.0,meteobridge,2013-02-19 15:52:00,
2013-02-19 09:57:00,49.5,29.5,30.30,East,89,2.0,8.9,46,0.00,,,0.00,531.0,meteobridge,2013-02-19 15:57:00,
2013-02-19 10:02:00,49.3,29.3,30.30,ENE,68,2.0,4.9,46,0.00,,,0.00,545.0,meteobridge,2013-02-19 16:02:00,
2013-02-19 10:07:00,49.8,30.4,30.29,NE,44,6.0,6.0,47,0.00,,,0.00,561.0,meteobridge,2013-02-19 16:07:00,
2013-02-19 10:12:00,50.5,31.1,30.29,East,87,2.0,6.0,47,0.00,,,0.00,575.0,meteobridge,2013-02-19 16:12:00,
2013-02-19 10:17:00,50.7,30.7,30.30,ENE,68,2.9,4.0,46,0.00,,,0.00,587.0,meteobridge,2013-02-19 16:17:00,
2013-02-19 10:22:00,51.4,30.7,30.29,ENE,63,2.9,8.9,45,0.00,,,0.00,601.0,meteobridge,2013-02-19 16:22:00,
2013-02-19 10:27:00,51.4,30.7,30.29,ENE,64,6.9,6.9,45,0.00,,,0.00,613.0,meteobridge,2013-02-19 16:27:00,
2013-02-19 10:32:00,51.3,31.1,30.29,ENE,61,4.0,4.9,46,0.00,,,0.00,628.0,meteobridge,2013-02-19 16:32:00,
2013-02-19 10:37:00,52.0,30.7,30.30,ENE,76,2.9,6.0,44,0.00,,,0.00,636.0,meteobridge,2013-02-19 16:37:00,
2013-02-19 10:42:00,52.9,31.6,30.30,NE,49,2.9,6.9,44,0.00,,,0.00,647.0,meteobridge,2013-02-19 16:42:00,
2013-02-19 10:47:00,52.5,30.7,30.29,East,81,0.0,2.0,43,0.00,,,0.00,657.0,meteobridge,2013-02-19 16:47:00,
2013-02-19 10:52:00,53.2,31.8,30.29,ENE,65,4.0,6.9,44,0.00,,,0.00,668.0,meteobridge,2013-02-19 16:52:00,
2013-02-19 10:57:00,53.8,31.3,30.29,East,91,0.0,6.0,42,0.00,,,0.00,679.0,meteobridge,2013-02-19 16:57:00,
2013-02-19 11:02:00,54.3,31.1,30.29,ENE,76,4.0,8.9,41,0.00,,,0.00,689.0,meteobridge,2013-02-19 17:02:00,
2013-02-19 11:07:00,54.7,30.2,30.29,East,100,4.0,6.9,39,0.00,,,0.00,700.0,meteobridge,2013-02-19 17:07:00,
2013-02-19 11:12:00,54.7,32.0,30.29,NE,43,6.0,6.0,42,0.00,,,0.00,708.0,meteobridge,2013-02-19 17:12:00,
2013-02-19 11:17:00,55.0,29.3,30.29,ESE,109,6.9,8.9,37,0.00,,,0.00,717.0,meteobridge,2013-02-19 17:17:00,
2013-02-19 11:22:00,55.2,29.5,30.29,ENE,66,6.0,10.1,37,0.00,,,0.00,728.0,meteobridge,2013-02-19 17:22:00,
2013-02-19 11:27:00,55.4,30.2,30.29,East,88,0.9,10.1,38,0.00,,,0.00,733.0,meteobridge,2013-02-19 17:27:00,
2013-02-19 11:32:00,56.1,30.2,30.29,East,83,0.9,11.0,37,0.00,,,0.00,740.0,meteobridge,2013-02-19 17:32:00,
2013-02-19 11:38:00,56.1,28.0,30.29,SE,128,2.9,11.0,34,0.00,,,0.00,749.0,meteobridge,2013-02-19 17:38:00,
2013-02-19 11:43:00,56.3,28.2,30.29,NE,46,4.0,10.1,34,0.00,,,0.00,756.0,meteobridge,2013-02-19 17:43:00,
2013-02-19 11:48:00,56.8,29.5,30.29,NE,51,6.0,10.1,35,0.00,,,0.00,759.0,meteobridge,2013-02-19 17:48:00,
2013-02-19 11:53:00,56.8,30.2,30.29,ESE,121,4.9,12.1,36,0.00,,,0.00,765.0,meteobridge,2013-02-19 17:53:00,
2013-02-19 11:58:00,57.6,30.7,30.29,ESE,105,4.0,8.9,36,0.00,,,0.00,768.0,meteobridge,2013-02-19 17:58:00,
2013-02-19 12:03:00,57.6,31.5,30.29,SE,141,4.0,10.1,37,0.00,,,0.00,775.0,meteobridge,2013-02-19 18:03:00,
2013-02-19 12:08:00,58.1,31.3,30.28,ESE,103,2.9,6.9,36,0.00,,,0.00,779.0,meteobridge,2013-02-19 18:08:00,
2013-02-19 12:13:00,58.1,31.3,30.28,East,98,4.0,10.1,36,0.00,,,0.00,782.0,meteobridge,2013-02-19 18:13:00,
2013-02-19 12:18:00,57.4,31.3,30.28,SE,130,6.9,6.9,37,0.00,,,0.00,784.0,meteobridge,2013-02-19 18:18:00,
2013-02-19 12:23:00,58.3,31.5,30.28,NE,45,2.9,6.9,36,0.00,,,0.00,786.0,meteobridge,2013-02-19 18:23:00,
2013-02-19 12:28:00,58.5,31.6,30.27,SE,129,4.9,11.0,36,0.00,,,0.00,789.0,meteobridge,2013-02-19 18:28:00,
2013-02-19 12:33:00,58.1,32.0,30.27,East,101,2.9,6.9,37,0.00,,,0.00,780.0,meteobridge,2013-02-19 18:33:00,
2013-02-19 12:38:00,58.6,31.1,30.26,ESE,117,6.0,8.9,35,0.00,,,0.00,784.0,meteobridge,2013-02-19 18:38:00,
2013-02-19 12:43:00,58.5,31.6,30.26,ENE,74,4.0,10.1,36,0.00,,,0.00,784.0,meteobridge,2013-02-19 18:43:00,
2013-02-19 12:48:00,58.5,31.6,30.26,East,101,6.0,10.1,36,0.00,,,0.00,784.0,meteobridge,2013-02-19 18:48:00,
2013-02-19 12:53:00,59.0,31.5,30.26,ENE,71,4.0,6.9,35,0.00,,,0.00,782.0,meteobridge,2013-02-19 18:53:00,
2013-02-19 12:58:00,59.2,31.5,30.25,East,98,4.9,8.1,35,0.00,,,0.00,782.0,meteobridge,2013-02-19 18:58:00,
2013-02-19 13:03:00,60.1,33.1,30.25,East,96,6.9,6.9,36,0.00,,,0.00,789.0,meteobridge,2013-02-19 19:03:00,
2013-02-19 13:08:00,59.5,31.8,30.25,East,82,2.9,8.9,35,0.00,,,0.00,789.0,meteobridge,2013-02-19 19:08:00,
2013-02-19 13:13:00,60.1,32.4,30.24,East,100,2.9,13.0,35,0.00,,,0.00,788.0,meteobridge,2013-02-19 19:13:00,
2013-02-19 13:18:00,60.4,32.7,30.24,ENE,70,2.9,8.9,35,0.00,,,0.00,788.0,meteobridge,2013-02-19 19:18:00,
2013-02-19 13:23:00,60.3,31.1,30.24,ESE,102,4.9,8.9,33,0.00,,,0.00,784.0,meteobridge,2013-02-19 19:23:00,
2013-02-19 13:28:00,60.3,31.8,30.23,East,88,2.9,11.0,34,0.00,,,0.00,780.0,meteobridge,2013-02-19 19:28:00,
2013-02-19 13:33:00,60.4,31.3,30.22,ESE,107,6.9,6.9,33,0.00,,,0.00,775.0,meteobridge,2013-02-19 19:33:00,
2013-02-19 13:38:00,60.8,32.2,30.23,ESE,107,2.0,11.0,34,0.00,,,0.00,770.0,meteobridge,2013-02-19 19:38:00,
2013-02-19 13:43:00,61.2,31.1,30.23,NNE,30,6.9,6.9,32,0.00,,,0.00,763.0,meteobridge,2013-02-19 19:43:00,
2013-02-19 13:48:00,61.0,32.4,30.23,ENE,60,2.9,8.9,34,0.00,,,0.00,758.0,meteobridge,2013-02-19 19:48:00,
2013-02-19 13:53:00,61.2,31.8,30.23,ESE,108,6.0,10.1,33,0.00,,,0.00,754.0,meteobridge,2013-02-19 19:53:00,
2013-02-19 13:58:00,61.3,32.0,30.22,ESE,122,2.9,10.1,33,0.00,,,0.00,772.0,meteobridge,2013-02-19 19:58:00,
2013-02-19 14:03:00,60.6,32.2,30.22,ESE,111,2.9,6.9,34,0.00,,,0.00,480.0,meteobridge,2013-02-19 20:03:00,
2013-02-19 14:08:00,61.9,32.5,30.22,East,97,4.0,8.1,33,0.00,,,0.00,733.0,meteobridge,2013-02-19 20:08:00,
2013-02-19 14:13:00,61.0,30.9,30.22,ENE,73,4.0,6.0,32,0.00,,,0.00,728.0,meteobridge,2013-02-19 20:13:00,
2013-02-19 14:19:00,61.3,31.3,30.21,NE,46,4.0,6.9,32,0.00,,,0.00,737.0,meteobridge,2013-02-19 20:19:00,
2013-02-19 14:24:00,62.2,31.3,30.21,ENE,64,4.9,8.9,31,0.00,,,0.00,726.0,meteobridge,2013-02-19 20:24:00,
2013-02-19 14:29:00,61.9,31.6,30.21,ENE,68,4.9,8.9,32,0.00,,,0.00,722.0,meteobridge,2013-02-19 20:29:00,
2013-02-19 14:34:00,62.2,31.3,30.20,East,94,6.0,13.0,31,0.00,,,0.00,698.0,meteobridge,2013-02-19 20:34:00,
2013-02-19 14:39:00,62.1,31.1,30.20,NNE,30,6.0,10.1,31,0.00,,,0.00,689.0,meteobridge,2013-02-19 20:39:00,
2013-02-19 14:44:00,61.7,30.0,30.21,ENE,71,2.9,8.9,30,0.00,,,0.00,564.0,meteobridge,2013-02-19 20:44:00,
2013-02-19 14:49:00,61.3,31.3,30.20,ENE,63,2.9,6.9,32,0.00,,,0.00,629.0,meteobridge,2013-02-19 20:49:00,
2013-02-19 14:54:00,61.9,31.6,30.19,ESE,106,4.9,10.1,32,0.00,,,0.00,622.0,meteobridge,2013-02-19 20:54:00,
2013-02-19 14:59:00,62.8,33.3,30.19,East,84,6.0,8.9,33,0.00,,,0.00,587.0,meteobridge,2013-02-19 20:59:00,
2013-02-19 15:04:00,62.2,32.0,30.19,East,86,6.0,12.1,32,0.00,,,0.00,673.0,meteobridge,2013-02-19 21:04:00,
2013-02-19 15:09:00,62.1,31.8,30.19,ESE,114,2.9,8.9,32,0.00,,,0.00,649.0,meteobridge,2013-02-19 21:09:00,
2013-02-19 15:14:00,61.5,31.5,30.18,ESE,106,4.9,8.9,32,0.00,,,0.00,301.0,meteobridge,2013-02-19 21:14:00,
2013-02-19 15:19:00,61.3,31.3,30.18,ENE,71,8.1,8.1,32,0.00,,,0.00,615.0,meteobridge,2013-02-19 21:19:00,
2013-02-19 15:24:00,62.1,32.5,30.18,ESE,121,6.0,14.1,33,0.00,,,0.00,566.0,meteobridge,2013-02-19 21:24:00,
2013-02-19 15:29:00,62.4,32.9,30.18,East,84,4.0,11.0,33,0.00,,,0.00,540.0,meteobridge,2013-02-19 21:29:00,
2013-02-19 15:34:00,61.7,31.5,30.18,ENE,60,2.0,11.0,32,0.00,,,0.00,554.0,meteobridge,2013-02-19 21:34:00,
2013-02-19 15:39:00,62.2,32.0,30.17,East,84,4.0,11.0,32,0.00,,,0.00,585.0,meteobridge,2013-02-19 21:39:00,
2013-02-19 15:44:00,62.4,32.2,30.17,ENE,71,4.0,11.0,32,0.00,,,0.00,545.0,meteobridge,2013-02-19 21:44:00,
2013-02-19 15:49:00,62.2,32.7,30.16,ESE,106,6.9,8.9,33,0.00,,,0.00,513.0,meteobridge,2013-02-19 21:49:00,
2013-02-19 15:54:00,62.2,32.7,30.16,NE,38,4.9,6.9,33,0.00,,,0.00,496.0,meteobridge,2013-02-19 21:54:00,
2013-02-19 15:59:00,62.1,31.8,30.17,East,95,4.0,8.1,32,0.00,,,0.00,476.0,meteobridge,2013-02-19 21:59:00,
2013-02-19 16:04:00,61.9,31.6,30.16,East,81,2.0,6.0,32,0.00,,,0.00,468.0,meteobridge,2013-02-19 22:04:00,
2013-02-19 16:09:00,62.1,31.8,30.16,SSE,167,6.0,6.9,32,0.00,,,0.00,406.0,meteobridge,2013-02-19 22:09:00,
2013-02-19 16:14:00,61.3,31.3,30.16,East,80,4.0,8.9,32,0.00,,,0.00,392.0,meteobridge,2013-02-19 22:14:00,
2013-02-19 16:19:00,61.9,32.5,30.16,East,83,6.0,6.0,33,0.00,,,0.00,352.0,meteobridge,2013-02-19 22:19:00,
2013-02-19 16:24:00,61.3,32.0,30.16,ENE,75,4.0,6.9,33,0.00,,,0.00,387.0,meteobridge,2013-02-19 22:24:00,
2013-02-19 16:29:00,62.1,31.8,30.15,NE,49,4.9,10.1,32,0.00,,,0.00,329.0,meteobridge,2013-02-19 22:29:00,
2013-02-19 16:34:00,61.5,31.5,30.15,East,79,6.9,11.0,32,0.00,,,0.00,279.0,meteobridge,2013-02-19 22:34:00,
2013-02-19 16:39:00,61.3,31.3,30.15,ENE,60,4.9,8.9,32,0.00,,,0.00,338.0,meteobridge,2013-02-19 22:39:00,
2013-02-19 16:44:00,61.5,31.5,30.15,ESE,107,4.9,8.1,32,0.00,,,0.00,313.0,meteobridge,2013-02-19 22:44:00,
2013-02-19 16:49:00,61.3,32.0,30.15,ESE,113,4.0,6.0,33,0.00,,,0.00,294.0,meteobridge,2013-02-19 22:49:00,
2013-02-19 16:54:00,61.2,31.1,30.14,ENE,66,6.0,6.9,32,0.00,,,0.00,260.0,meteobridge,2013-02-19 22:54:00,
2013-02-19 16:59:00,60.6,30.6,30.15,East,98,6.9,6.9,32,0.00,,,0.00,204.0,meteobridge,2013-02-19 22:59:00,
2013-02-19 17:04:00,60.3,30.2,30.15,ESE,121,4.0,10.1,32,0.00,,,0.00,174.0,meteobridge,2013-02-19 23:04:00,
2013-02-19 17:09:00,59.5,31.8,30.15,East,94,4.0,6.0,35,0.00,,,0.00,151.0,meteobridge,2013-02-19 23:09:00,
2013-02-19 17:14:00,59.0,32.0,30.15,ESE,107,2.9,4.9,36,0.00,,,0.00,139.0,meteobridge,2013-02-19 23:14:00,
2013-02-19 17:19:00,59.0,33.4,30.15,East,101,2.9,6.0,38,0.00,,,0.00,183.0,meteobridge,2013-02-19 23:19:00,
2013-02-19 17:24:00,59.2,32.9,30.15,East,87,2.9,4.9,37,0.00,,,0.00,197.0,meteobridge,2013-02-19 23:24:00,
2013-02-19 17:29:00,59.2,34.2,30.16,East,94,2.0,4.9,39,0.00,,,0.00,181.0,meteobridge,2013-02-19 23:29:00,
2013-02-19 17:34:00,59.0,33.4,30.16,ENE,72,2.0,4.0,38,0.00,,,0.00,156.0,meteobridge,2013-02-19 23:34:00,
2013-02-19 17:39:00,58.8,35.2,30.16,East,79,2.0,4.9,41,0.00,,,0.00,107.0,meteobridge,2013-02-19 23:39:00,
2013-02-19 17:44:00,58.3,35.2,30.16,East,87,0.9,4.0,42,0.00,,,0.00,70.0,meteobridge,2013-02-19 23:44:00,
2013-02-19 17:49:00,57.6,33.4,30.16,East,84,0.9,4.0,40,0.00,,,0.00,30.0,meteobridge,2013-02-19 23:49:00,
2013-02-19 17:54:00,56.7,33.8,30.16,East,90,4.0,4.0,42,0.00,,,0.00,21.0,meteobridge,2013-02-19 23:54:00,
2013-02-19 17:59:00,55.9,34.3,30.16,ESE,102,0.9,4.0,44,0.00,,,0.00,14.0,meteobridge,2013-02-19 23:59:00,
2013-02-19 18:04:00,55.2,35.4,30.17,ESE,102,0.0,2.0,47,0.00,,,0.00,7.0,meteobridge,2013-02-20 00:04:00,
2013-02-19 18:09:00,54.7,35.4,30.17,East,95,0.0,0.9,48,0.00,,,0.00,0.0,meteobridge,2013-02-20 00:09:00,
2013-02-19 18:14:00,54.1,36.0,30.16,East,83,0.9,0.9,50,0.00,,,0.00,0.0,meteobridge,2013-02-20 00:14:00,
2013-02-19 18:20:00,53.8,36.1,30.16,East,82,2.0,2.0,51,0.00,,,0.00,0.0,meteobridge,2013-02-20 00:20:00,
2013-02-19 18:25:00,53.2,35.6,30.16,East,79,0.9,2.9,51,0.00,,,0.00,0.0,meteobridge,2013-02-20 00:25:00,
2013-02-19 18:30:00,53.1,36.3,30.16,ENE,72,0.0,0.9,53,0.00,,,0.00,0.0,meteobridge,2013-02-20 00:30:00,
2013-02-19 18:35:00,52.9,37.6,30.16,East,82,0.0,0.9,56,0.00,,,0.00,0.0,meteobridge,2013-02-20 00:35:00,
2013-02-19 18:39:00,52.5,37.8,30.17,East,82,0.0,0.9,57,0.00,,,0.00,0.0,meteobridge,2013-02-20 00:39:00,
2013-02-19 18:45:00,52.3,37.9,30.17,East,82,0.0,0.9,58,0.00,,,0.00,0.0,meteobridge,2013-02-20 00:45:00,
2013-02-19 18:50:00,52.3,37.9,30.17,East,82,0.0,0.9,58,0.00,,,0.00,0.0,meteobridge,2013-02-20 00:50:00,
2013-02-19 18:55:00,52.2,38.3,30.17,East,82,0.0,0.0,59,0.00,,,0.00,0.0,meteobridge,2013-02-20 00:55:00,
2013-02-19 19:00:00,51.8,38.3,30.17,East,82,0.0,2.0,60,0.00,,,0.00,0.0,meteobridge,2013-02-20 01:00:00,
2013-02-19 19:05:00,51.8,39.2,30.17,East,82,0.0,0.9,62,0.00,,,0.00,0.0,meteobridge,2013-02-20 01:05:00,
2013-02-19 19:10:00,52.2,37.8,30.17,ENE,76,2.9,4.0,58,0.00,,,0.00,0.0,meteobridge,2013-02-20 01:10:00,
2013-02-19 19:15:00,52.2,35.6,30.17,ENE,74,0.9,2.0,53,0.00,,,0.00,0.0,meteobridge,2013-02-20 01:15:00,
2013-02-19 19:20:00,52.2,34.5,30.17,ENE,74,2.0,2.9,51,0.00,,,0.00,0.0,meteobridge,2013-02-20 01:20:00,
2013-02-19 19:25:00,52.2,34.5,30.17,ENE,71,0.9,2.9,51,0.00,,,0.00,0.0,meteobridge,2013-02-20 01:25:00,
2013-02-19 19:31:00,52.2,34.5,30.17,ENE,69,2.0,2.9,51,0.00,,,0.00,0.0,meteobridge,2013-02-20 01:31:00,
2013-02-19 19:35:00,52.3,34.7,30.17,ENE,69,2.9,4.0,51,0.00,,,0.00,0.0,meteobridge,2013-02-20 01:35:00,
2013-02-19 19:40:00,52.3,34.7,30.16,ENE,78,0.9,2.0,51,0.00,,,0.00,0.0,meteobridge,2013-02-20 01:40:00,
2013-02-19 19:45:00,52.9,34.2,30.16,East,90,2.0,4.0,49,0.00,,,0.00,0.0,meteobridge,2013-02-20 01:45:00,
2013-02-19 19:51:00,53.1,33.8,30.16,ENE,62,4.0,4.0,48,0.00,,,0.00,0.0,meteobridge,2013-02-20 01:51:00,
2013-02-19 19:56:00,53.2,33.4,30.16,East,92,2.0,6.0,47,0.00,,,0.00,0.0,meteobridge,2013-02-20 01:56:00,
2013-02-19 20:01:00,53.6,33.8,30.16,East,82,2.0,4.9,47,0.00,,,0.00,0.0,meteobridge,2013-02-20 02:01:00,
2013-02-19 20:06:00,53.6,34.3,30.16,ENE,75,2.9,4.0,48,0.00,,,0.00,0.0,meteobridge,2013-02-20 02:06:00,
2013-02-19 20:11:00,53.6,34.9,30.15,ESE,105,4.0,6.0,49,0.00,,,0.00,0.0,meteobridge,2013-02-20 02:11:00,
2013-02-19 20:16:00,53.6,34.9,30.15,East,82,4.0,6.9,49,0.00,,,0.00,0.0,meteobridge,2013-02-20 02:16:00,
2013-02-19 20:21:00,53.6,35.4,30.15,ENE,68,2.9,4.0,50,0.00,,,0.00,0.0,meteobridge,2013-02-20 02:21:00,
2013-02-19 20:26:00,53.4,35.8,30.15,East,94,4.0,4.9,51,0.00,,,0.00,0.0,meteobridge,2013-02-20 02:26:00,
2013-02-19 20:31:00,53.4,35.8,30.15,East,82,2.0,4.0,51,0.00,,,0.00,0.0,meteobridge,2013-02-20 02:31:00,
2013-02-19 20:36:00,53.4,36.3,30.15,East,80,0.9,4.9,52,0.00,,,0.00,0.0,meteobridge,2013-02-20 02:36:00,
2013-02-19 20:41:00,53.2,36.1,30.15,ENE,59,2.9,4.9,52,0.00,,,0.00,0.0,meteobridge,2013-02-20 02:41:00,
2013-02-19 20:46:00,53.2,35.6,30.15,East,92,2.9,4.9,51,0.00,,,0.00,0.0,meteobridge,2013-02-20 02:46:00,
2013-02-19 20:51:00,53.2,35.1,30.15,NE,49,2.0,4.9,50,0.00,,,0.00,0.0,meteobridge,2013-02-20 02:51:00,
2013-02-19 20:56:00,53.2,35.1,30.16,East,100,2.0,4.9,50,0.00,,,0.00,0.0,meteobridge,2013-02-20 02:56:00,
2013-02-19 21:01:00,53.2,35.6,30.16,East,101,0.9,4.0,51,0.00,,,0.00,0.0,meteobridge,2013-02-20 03:01:00,
2013-02-19 21:06:00,53.2,35.1,30.16,East,88,2.9,4.9,50,0.00,,,0.00,0.0,meteobridge,2013-02-20 03:06:00,
2013-02-19 21:11:00,53.4,33.6,30.16,East,89,2.0,4.9,47,0.00,,,0.00,0.0,meteobridge,2013-02-20 03:11:00,
2013-02-19 21:16:00,53.4,32.0,30.15,ESE,112,2.9,6.0,44,0.00,,,0.00,0.0,meteobridge,2013-02-20 03:16:00,
2013-02-19 21:21:00,53.4,30.9,30.15,ESE,109,4.9,6.0,42,0.00,,,0.00,0.0,meteobridge,2013-02-20 03:21:00,
2013-02-19 21:26:00,53.6,30.4,30.15,ESE,109,6.0,8.1,41,0.00,,,0.00,0.0,meteobridge,2013-02-20 03:26:00,
2013-02-19 21:31:00,53.8,30.6,30.16,East,101,2.9,6.0,41,0.00,,,0.00,0.0,meteobridge,2013-02-20 03:31:00,
2013-02-19 21:36:00,53.8,31.3,30.17,ESE,103,2.9,4.0,42,0.00,,,0.00,0.0,meteobridge,2013-02-20 03:36:00,
2013-02-19 21:41:00,53.8,30.6,30.17,ESE,118,4.0,4.9,41,0.00,,,0.00,0.0,meteobridge,2013-02-20 03:41:00,
2013-02-19 21:46:00,53.8,31.3,30.17,ESE,108,2.9,4.9,42,0.00,,,0.00,0.0,meteobridge,2013-02-20 03:46:00,
2013-02-19 21:51:00,53.4,31.5,30.18,ESE,121,2.0,6.0,43,0.00,,,0.00,0.0,meteobridge,2013-02-20 03:51:00,
2013-02-19 21:56:00,53.6,31.6,30.18,ESE,116,2.0,4.9,43,0.00,,,0.00,0.0,meteobridge,2013-02-20 03:56:00,
2013-02-19 22:01:00,53.4,32.0,30.17,ESE,104,2.0,4.9,44,0.00,,,0.00,0.0,meteobridge,2013-02-20 04:01:00,
2013-02-19 22:06:00,53.4,32.0,30.17,East,97,2.9,4.0,44,0.00,,,0.00,0.0,meteobridge,2013-02-20 04:06:00,
2013-02-19 22:11:00,53.4,32.0,30.18,ESE,106,0.9,4.0,44,0.00,,,0.00,0.0,meteobridge,2013-02-20 04:11:00,
2013-02-19 22:16:00,53.4,32.5,30.17,ESE,107,4.0,4.0,45,0.00,,,0.00,0.0,meteobridge,2013-02-20 04:16:00,
2013-02-19 22:21:00,53.2,32.4,30.17,ESE,118,2.9,6.0,45,0.00,,,0.00,0.0,meteobridge,2013-02-20 04:21:00,
2013-02-19 22:26:00,53.2,33.1,30.17,East,93,2.0,4.0,46,0.00,,,0.00,0.0,meteobridge,2013-02-20 04:26:00,
2013-02-19 22:31:00,53.2,33.1,30.16,East,96,2.0,2.9,46,0.00,,,0.00,0.0,meteobridge,2013-02-20 04:31:00,
2013-02-19 22:36:00,53.2,33.1,30.16,ESE,109,2.0,2.9,46,0.00,,,0.00,0.0,meteobridge,2013-02-20 04:36:00,
2013-02-19 22:41:00,53.2,33.1,30.15,ESE,115,4.0,8.1,46,0.00,,,0.00,0.0,meteobridge,2013-02-20 04:41:00,
2013-02-19 22:46:00,53.2,33.1,30.15,East,88,2.9,6.9,46,0.00,,,0.00,0.0,meteobridge,2013-02-20 04:46:00,
2013-02-19 22:51:00,53.2,33.1,30.15,ESE,106,2.0,6.9,46,0.00,,,0.00,0.0,meteobridge,2013-02-20 04:51:00,
2013-02-19 22:56:00,53.2,33.4,30.14,ESE,102,4.0,6.0,47,0.00,,,0.00,0.0,meteobridge,2013-02-20 04:56:00,
2013-02-19 23:00:00,53.1,33.8,30.14,NE,42,4.0,10.1,48,0.00,,,0.00,0.0,meteobridge,2013-02-20 05:00:00,
2013-02-19 23:05:00,52.7,33.6,30.14,ESE,114,4.9,6.0,48,0.00,,,0.00,0.0,meteobridge,2013-02-20 05:05:00,
2013-02-19 23:10:00,52.5,34.0,30.14,East,95,4.9,6.0,49,0.00,,,0.00,0.0,meteobridge,2013-02-20 05:10:00,
2013-02-19 23:15:00,52.3,34.2,30.13,East,90,4.9,6.0,50,0.00,,,0.00,0.0,meteobridge,2013-02-20 05:15:00,
2013-02-19 23:20:00,52.2,34.2,30.13,ESE,113,4.9,8.9,50,0.00,,,0.00,0.0,meteobridge,2013-02-20 05:20:00,
2013-02-19 23:25:00,52.2,34.5,30.14,SE,124,2.9,10.1,51,0.00,,,0.00,0.0,meteobridge,2013-02-20 05:25:00,
2013-02-19 23:30:00,52.0,34.3,30.14,ESE,112,4.9,8.9,51,0.00,,,0.00,0.0,meteobridge,2013-02-20 05:30:00,
2013-02-19 23:35:00,51.8,35.2,30.15,SE,138,6.0,8.9,53,0.00,,,0.00,0.0,meteobridge,2013-02-20 05:35:00,
2013-02-19 23:40:00,51.6,35.6,30.15,SE,140,4.0,10.1,54,0.00,,,0.00,0.0,meteobridge,2013-02-20 05:40:00,
2013-02-19 23:45:00,51.4,36.3,30.15,ESE,121,4.0,4.9,56,0.00,,,0.00,0.0,meteobridge,2013-02-20 05:45:00,
2013-02-19 23:50:00,51.4,36.7,30.14,SE,141,4.9,6.9,57,0.00,,,0.00,0.0,meteobridge,2013-02-20 05:50:00,
2013-02-19 23:55:00,51.4,37.2,30.14,ESE,119,2.0,4.9,58,0.00,,,0.00,0.0,meteobridge,2013-02-20 05:55:00,